GMFO/OUD METAR and TAF weather

Enter ICAO airport designator
Station Type Date Time Source
GMFO METAR 2019/07/20 20:00 UTC NOAA

GMFO 202000Z 34010KT 300V360 9999 FEW020 26/20 Q1015 NOSIG


Station Type Date Time Source
GMFO Decoded METAR 2019/07/20 20:00 UTC NOAA

Oujda, Morocco (GMFO) 34-47N 001-56W 470M
Jul 20, 2019 - 04:00 PM EDT / 2019.07.20 2000 UTC
Wind: from the NNW (340 degrees) at 12 MPH (10 KT) (direction variable):0
Visibility: greater than 7 mile(s):0
Sky conditions: mostly clear
Temperature: 78 F (26 C)
Dew Point: 68 F (20 C)
Relative Humidity: 69%
Pressure (altimeter): 29.97 in. Hg (1015 hPa)
ob: GMFO 202000Z 34010KT 300V360 9999 FEW020 26/20 Q1015 NOSIG
cycle: 20

Station Type Date Time Source
GMFO TAF 2019/07/20 18:15 UTC NOAA

TAF TAF GMFO 201700Z 2018/2124 36014KT 9999 FEW020TCU BKN130 PROB30
TEMPO 2019/2022 4000 -SHRA FEW033CB
BECMG 2100/2104 9999 SCT010 BKN120

Example: see airport list